createdAt,value
2019-03-31T00:01:33.103Z,76.83
2019-03-31T00:04:00.847Z,76.90
2019-03-31T00:06:28.627Z,75.73
2019-03-31T00:08:56.492Z,72.27
2019-03-31T00:11:24.357Z,73.80
2019-03-31T00:13:52.130Z,69.47
2019-03-31T00:16:19.893Z,67.83
2019-03-31T00:18:47.765Z,73.07
2019-03-31T00:21:15.633Z,68.17
2019-03-31T00:23:43.404Z,73.03
2019-03-31T00:26:11.152Z,72.83
2019-03-31T00:28:38.853Z,79.67
2019-03-31T00:31:21.033Z,80.50
2019-03-31T00:33:36.715Z,69.07
2019-03-31T00:36:05.423Z,67.10
2019-03-31T00:38:33.183Z,77.30
2019-03-31T00:41:00.935Z,74.10
2019-03-31T00:43:28.697Z,85.93
2019-03-31T00:45:56.472Z,87.73
2019-03-31T00:48:24.346Z,94.97
2019-03-31T00:50:52.122Z,86.60
2019-03-31T00:53:19.878Z,91.60
2019-03-31T00:55:47.632Z,88.90
2019-03-31T00:58:15.507Z,91.67
2019-03-31T01:00:46.343Z,87.20
2019-03-31T01:03:14.518Z,78.40
2019-03-31T01:05:42.721Z,57.97
2019-03-31T01:08:10.461Z,59.40
2019-03-31T01:10:38.636Z,59.60
2019-03-31T01:13:06.488Z,62.30
2019-03-31T01:15:34.764Z,64.60
2019-03-31T01:18:29.781Z,68.00
2019-03-31T01:20:57.650Z,67.07
2019-03-31T01:23:25.427Z,59.17
2019-03-31T01:25:53.167Z,65.37
2019-03-31T01:28:21.464Z,62.60
2019-03-31T01:30:49.641Z,60.90
2019-03-31T01:33:17.714Z,62.67
2019-03-31T01:35:45.590Z,67.77
2019-03-31T01:38:13.553Z,66.27
2019-03-31T01:40:41.423Z,61.90
2019-03-31T01:43:09.177Z,67.43
2019-03-31T01:45:37.045Z,66.37
2019-03-31T01:48:05.324Z,57.98
2019-03-31T01:50:33.099Z,64.93
2019-03-31T01:53:00.861Z,67.77
2019-03-31T01:55:28.622Z,83.43
2019-03-31T01:57:56.701Z,73.07
2019-03-31T02:00:28.761Z,74.83
2019-03-31T02:02:56.548Z,64.97
2019-03-31T02:05:24.404Z,63.87
2019-03-31T02:07:52.274Z,63.40
2019-03-31T02:10:20.042Z,69.27
2019-03-31T02:12:47.683Z,65.60
2019-03-31T02:15:15.348Z,67.17
2019-03-31T02:17:43.216Z,71.37
2019-03-31T02:20:12.163Z,74.33
2019-03-31T02:22:40.304Z,69.43
2019-03-31T02:25:08.274Z,63.70
2019-03-31T02:27:36.137Z,64.43
2019-03-31T02:30:04.626Z,66.43
2019-03-31T02:32:32.398Z,58.97
2019-03-31T02:35:00.050Z,62.93
2019-03-31T02:37:27.931Z,67.20
2019-03-31T02:39:55.791Z,61.53
2019-03-31T02:42:23.753Z,69.07
2019-03-31T02:44:51.419Z,78.23
2019-03-31T02:47:19.191Z,74.97
2019-03-31T02:49:46.936Z,69.13
2019-03-31T02:52:14.828Z,62.80
2019-03-31T02:54:42.987Z,63.37
2019-03-31T02:57:10.962Z,56.63
2019-03-31T02:59:38.820Z,66.77
2019-03-31T03:02:06.710Z,67.07
2019-03-31T03:04:35.704Z,68.43
2019-03-31T03:07:03.979Z,71.03
2019-03-31T03:09:32.244Z,61.80
2019-03-31T03:12:00.412Z,64.47
2019-03-31T03:14:29.594Z,63.77
2019-03-31T03:16:57.396Z,67.30
2019-03-31T03:19:25.263Z,69.03
2019-03-31T03:21:53.426Z,68.47
2019-03-31T03:24:21.089Z,69.63
2019-03-31T03:26:48.752Z,68.37
2019-03-31T03:29:16.460Z,67.93
2019-03-31T03:31:44.305Z,64.90
2019-03-31T03:34:12.063Z,62.23
2019-03-31T03:36:43.133Z,60.53
2019-03-31T03:39:09.248Z,62.20
2019-03-31T03:41:37.527Z,66.70
2019-03-31T03:44:05.488Z,65.17
2019-03-31T03:46:33.248Z,62.97
2019-03-31T03:49:01.031Z,69.97
2019-03-31T03:51:29.101Z,63.53
2019-03-31T03:53:56.867Z,60.67
2019-03-31T03:56:28.845Z,73.07
2019-03-31T03:58:54.138Z,66.53
2019-03-31T04:01:22.934Z,65.23
2019-03-31T04:03:50.564Z,64.97
2019-03-31T04:06:18.549Z,61.17
2019-03-31T04:08:46.421Z,68.87
2019-03-31T04:11:15.420Z,64.17
2019-03-31T04:13:43.391Z,63.43
2019-03-31T04:16:11.250Z,66.63
2019-03-31T04:18:39.121Z,69.33
2019-03-31T04:21:07.094Z,73.40
2019-03-31T04:23:34.871Z,70.67
2019-03-31T04:26:02.628Z,75.97
2019-03-31T04:28:30.390Z,69.00
2019-03-31T04:30:58.092Z,70.90
2019-03-31T04:33:25.928Z,73.77
2019-03-31T04:35:53.690Z,72.93
2019-03-31T04:38:21.461Z,83.83
2019-03-31T04:40:49.327Z,73.77
2019-03-31T04:43:17.196Z,74.80
2019-03-31T04:45:44.947Z,69.17
2019-03-31T04:48:12.820Z,66.07
2019-03-31T04:50:40.459Z,67.03
2019-03-31T04:53:08.254Z,70.17
2019-03-31T04:55:36.004Z,65.43
2019-03-31T04:58:03.800Z,63.00
2019-03-31T05:00:31.659Z,66.83
2019-03-31T05:02:59.359Z,67.83
2019-03-31T05:05:27.089Z,86.50
2019-03-31T05:07:54.959Z,84.53
2019-03-31T05:10:22.825Z,77.57
2019-03-31T05:12:50.590Z,80.17
2019-03-31T05:15:18.456Z,81.20
2019-03-31T05:17:46.095Z,79.47
2019-03-31T05:20:13.894Z,77.90
2019-03-31T05:22:41.958Z,81.23
2019-03-31T05:25:09.934Z,77.80
2019-03-31T05:27:37.801Z,68.27
2019-03-31T05:30:06.484Z,84.27
2019-03-31T05:32:34.266Z,84.57
2019-03-31T05:35:02.000Z,86.33
2019-03-31T05:37:29.781Z,79.20
2019-03-31T05:39:57.654Z,73.90
2019-03-31T05:42:25.337Z,77.57
2019-03-31T05:44:53.186Z,72.87
2019-03-31T05:47:20.898Z,71.27
2019-03-31T05:49:48.718Z,81.77
2019-03-31T05:52:16.465Z,74.03
2019-03-31T05:54:44.258Z,96.80
2019-03-31T05:57:12.118Z,95.60
2019-03-31T05:59:39.763Z,79.93
2019-03-31T06:02:07.544Z,76.67
2019-03-31T06:04:35.419Z,82.23
2019-03-31T06:07:03.285Z,81.63
2019-03-31T06:09:31.046Z,88.87
2019-03-31T06:11:58.812Z,81.53
2019-03-31T06:14:26.451Z,74.70
2019-03-31T06:16:54.343Z,75.90
2019-03-31T06:19:22.211Z,71.20
2019-03-31T06:21:50.085Z,71.43
2019-03-31T06:24:18.152Z,75.27
2019-03-31T06:26:45.903Z,69.73
2019-03-31T06:29:13.680Z,80.73
2019-03-31T06:31:41.435Z,74.93
2019-03-31T06:34:09.421Z,70.93
2019-03-31T06:36:37.297Z,74.77
2019-03-31T06:39:06.385Z,79.30
2019-03-31T06:41:34.260Z,73.90
2019-03-31T06:44:02.123Z,81.97
2019-03-31T06:46:29.771Z,77.93
2019-03-31T06:48:57.553Z,82.50
2019-03-31T06:51:25.427Z,94.60
2019-03-31T06:53:53.171Z,73.07
2019-03-31T06:56:21.061Z,92.83
2019-03-31T06:58:48.703Z,73.60
2019-03-31T07:01:16.486Z,68.83
2019-03-31T07:03:44.390Z,69.90
2019-03-31T07:06:12.226Z,59.97
2019-03-31T07:08:39.998Z,82.03
2019-03-31T07:11:07.861Z,213.80
2019-03-31T07:13:35.607Z,72.50
2019-03-31T07:16:03.495Z,58.63
2019-03-31T07:18:31.240Z,56.07
2019-03-31T07:20:59.021Z,56.30
2019-03-31T07:23:26.895Z,52.17
2019-03-31T07:25:54.643Z,54.40
2019-03-31T07:28:22.329Z,53.47
2019-03-31T07:30:50.078Z,45.70
2019-03-31T07:33:17.852Z,46.40
2019-03-31T07:35:45.520Z,48.50
2019-03-31T07:38:13.900Z,44.73
2019-03-31T07:40:41.933Z,49.83
2019-03-31T07:43:09.798Z,59.73
2019-03-31T07:45:37.609Z,50.73
2019-03-31T07:48:08.142Z,45.83
2019-03-31T07:50:34.869Z,47.00
2019-03-31T07:53:02.653Z,46.77
2019-03-31T07:55:30.517Z,44.70
2019-03-31T07:57:58.580Z,51.83
2019-03-31T08:00:27.991Z,48.00
2019-03-31T08:02:55.635Z,50.13
2019-03-31T08:05:33.026Z,47.93
2019-03-31T08:07:52.703Z,47.70
2019-03-31T08:10:21.500Z,46.00
2019-03-31T08:12:49.483Z,53.77
2019-03-31T08:15:17.455Z,45.17
2019-03-31T08:17:45.317Z,45.90
2019-03-31T08:20:13.745Z,42.70
2019-03-31T08:22:41.578Z,41.50
2019-03-31T08:25:09.623Z,43.67
2019-03-31T08:27:37.400Z,43.40
2019-03-31T08:30:07.224Z,46.15
2019-03-31T08:32:34.991Z,41.63
2019-03-31T08:35:02.858Z,41.43
2019-03-31T08:37:30.726Z,39.57
2019-03-31T08:39:58.486Z,46.73
2019-03-31T08:42:26.183Z,42.57
2019-03-31T08:44:54.126Z,34.10
2019-03-31T08:47:21.995Z,37.47
2019-03-31T08:49:49.935Z,35.03
2019-03-31T08:52:17.716Z,36.57
2019-03-31T08:54:45.502Z,35.40
2019-03-31T08:57:13.204Z,40.53
2019-03-31T08:59:41.023Z,29.80
2019-03-31T09:02:22.704Z,28.67
2019-03-31T09:04:50.494Z,27.93
2019-03-31T09:07:18.132Z,30.93
2019-03-31T09:09:45.899Z,31.60
2019-03-31T09:12:13.690Z,30.63
2019-03-31T09:14:41.653Z,33.27
2019-03-31T09:17:09.372Z,33.90
2019-03-31T09:19:37.012Z,29.37
2019-03-31T09:22:05.672Z,26.50
2019-03-31T09:24:33.429Z,31.50
2019-03-31T09:27:01.399Z,27.10
2019-03-31T09:29:29.153Z,27.30
2019-03-31T09:31:57.124Z,20.60
2019-03-31T09:34:25.005Z,28.20
2019-03-31T09:36:52.742Z,24.20
2019-03-31T09:39:20.410Z,23.07
2019-03-31T09:41:48.110Z,26.50
2019-03-31T09:44:15.811Z,29.40
2019-03-31T09:46:43.513Z,21.43
2019-03-31T09:49:11.177Z,26.00
2019-03-31T09:51:38.880Z,26.47
2019-03-31T09:54:06.579Z,21.73
2019-03-31T09:56:34.349Z,26.03
2019-03-31T09:59:02.063Z,25.10
2019-03-31T10:01:29.816Z,21.50
2019-03-31T10:03:57.481Z,16.77
2019-03-31T10:06:30.422Z,23.37
2019-03-31T10:08:54.757Z,17.93
2019-03-31T10:11:22.348Z,16.93
2019-03-31T10:13:50.128Z,21.87
2019-03-31T10:16:17.821Z,20.57
2019-03-31T10:18:45.452Z,21.77
2019-03-31T10:21:13.152Z,19.97
2019-03-31T10:23:40.882Z,15.53
2019-03-31T10:26:08.548Z,15.33
2019-03-31T10:28:36.240Z,17.47
2019-03-31T10:31:03.871Z,17.77
2019-03-31T10:33:31.580Z,15.47
2019-03-31T10:35:59.229Z,21.77
2019-03-31T10:38:26.977Z,20.10
2019-03-31T10:40:54.665Z,19.00
2019-03-31T10:43:22.316Z,20.20
2019-03-31T10:45:50.143Z,17.13
2019-03-31T10:48:20.847Z,16.47
2019-03-31T10:50:47.206Z,19.40
2019-03-31T10:53:14.899Z,15.10
2019-03-31T10:55:42.535Z,20.87
2019-03-31T10:58:10.246Z,17.30
2019-03-31T11:00:38.038Z,19.23
2019-03-31T11:03:06.576Z,24.33
2019-03-31T11:05:34.347Z,24.20
2019-03-31T11:08:02.093Z,21.90
2019-03-31T11:10:29.802Z,24.23
2019-03-31T11:12:57.473Z,21.00
2019-03-31T11:15:25.302Z,24.27
2019-03-31T11:17:54.788Z,18.97
2019-03-31T11:20:22.472Z,23.40
2019-03-31T11:23:03.802Z,20.53
2019-03-31T11:25:31.460Z,23.43
2019-03-31T11:27:59.170Z,18.30
2019-03-31T11:30:26.875Z,21.70
2019-03-31T11:32:54.588Z,19.03
2019-03-31T11:35:22.222Z,19.57
2019-03-31T11:37:49.898Z,18.03
2019-03-31T11:40:17.693Z,17.60
2019-03-31T11:42:45.323Z,22.13
2019-03-31T11:45:13.529Z,24.17
2019-03-31T11:47:41.306Z,23.33
2019-03-31T11:50:09.127Z,25.67
2019-03-31T11:52:36.835Z,20.37
2019-03-31T11:55:05.927Z,24.13
2019-03-31T11:57:33.775Z,31.57
2019-03-31T12:00:01.536Z,26.30
2019-03-31T12:02:29.230Z,23.23
2019-03-31T12:04:56.861Z,26.50
2019-03-31T12:07:28.336Z,25.40
2019-03-31T12:09:53.892Z,24.87
2019-03-31T12:12:21.591Z,26.23
2019-03-31T12:14:59.882Z,25.87
2019-03-31T12:17:18.635Z,22.57
2019-03-31T12:19:48.801Z,25.90
2019-03-31T12:22:15.613Z,25.37
2019-03-31T12:24:43.289Z,33.13
2019-03-31T12:27:11.062Z,24.97
2019-03-31T12:29:38.725Z,27.30
2019-03-31T12:32:06.375Z,28.00
2019-03-31T12:34:34.089Z,26.77
2019-03-31T12:37:01.757Z,22.93
2019-03-31T12:39:29.450Z,21.53
2019-03-31T12:41:57.157Z,25.37
2019-03-31T12:44:25.244Z,27.23
2019-03-31T12:46:56.010Z,31.60
2019-03-31T12:49:22.383Z,48.17
2019-03-31T12:51:50.115Z,29.83
2019-03-31T12:54:17.839Z,33.77
2019-03-31T12:56:45.534Z,28.93
2019-03-31T12:59:13.253Z,31.93
2019-03-31T13:01:40.984Z,26.43
2019-03-31T13:04:08.660Z,28.97
2019-03-31T13:06:36.369Z,30.53
2019-03-31T13:09:05.498Z,30.60
2019-03-31T13:11:33.165Z,29.77
2019-03-31T13:14:00.882Z,30.87
2019-03-31T13:16:28.575Z,32.63
2019-03-31T13:18:56.225Z,27.67
2019-03-31T13:21:23.986Z,26.53
2019-03-31T13:23:51.686Z,30.17
2019-03-31T13:26:19.458Z,29.20
2019-03-31T13:28:47.187Z,24.43
2019-03-31T13:31:14.913Z,25.63
2019-03-31T13:33:42.552Z,29.50
2019-03-31T13:36:10.370Z,21.17
2019-03-31T13:38:38.140Z,26.13
2019-03-31T13:41:05.767Z,19.00
2019-03-31T13:43:33.486Z,23.43
2019-03-31T13:46:01.252Z,20.60
2019-03-31T13:48:28.937Z,17.23
2019-03-31T13:50:56.713Z,20.70
2019-03-31T13:53:24.375Z,16.33
2019-03-31T13:55:52.033Z,19.40
2019-03-31T13:58:20.746Z,23.90
2019-03-31T14:00:48.815Z,22.80
2019-03-31T14:03:16.499Z,26.53
2019-03-31T14:05:44.172Z,26.70
2019-03-31T14:08:24.978Z,25.50
2019-03-31T14:10:41.199Z,24.37
2019-03-31T14:13:08.865Z,28.77
2019-03-31T14:15:36.495Z,27.07
2019-03-31T14:18:04.397Z,30.87
2019-03-31T14:20:32.380Z,23.13
2019-03-31T14:23:00.077Z,27.20
2019-03-31T14:25:27.789Z,25.83
2019-03-31T14:27:55.489Z,23.93
2019-03-31T14:30:23.157Z,25.33
2019-03-31T14:32:50.899Z,29.80
2019-03-31T14:35:18.569Z,29.43
2019-03-31T14:37:46.312Z,32.90
2019-03-31T14:40:14.458Z,31.60
2019-03-31T14:42:42.258Z,32.97
2019-03-31T14:45:11.406Z,31.13
2019-03-31T14:47:39.140Z,28.27
2019-03-31T14:50:06.866Z,31.97
2019-03-31T14:52:34.557Z,29.57
2019-03-31T14:55:02.296Z,30.23
2019-03-31T14:57:29.929Z,29.97
2019-03-31T14:59:57.576Z,30.77
2019-03-31T15:02:25.620Z,36.10
2019-03-31T15:04:53.388Z,27.90
2019-03-31T15:07:21.258Z,33.07
2019-03-31T15:09:48.917Z,31.27
2019-03-31T15:12:16.667Z,28.87
2019-03-31T15:14:44.317Z,30.63
2019-03-31T15:17:12.014Z,29.50
2019-03-31T15:19:39.700Z,27.93
2019-03-31T15:22:07.351Z,29.17
2019-03-31T15:24:35.090Z,31.93
2019-03-31T15:27:02.825Z,32.17
2019-03-31T15:29:30.536Z,29.37
2019-03-31T15:31:58.250Z,28.73
2019-03-31T15:34:26.020Z,35.73
2019-03-31T15:36:53.647Z,32.93
2019-03-31T15:39:21.333Z,36.83
2019-03-31T15:41:48.995Z,35.33
2019-03-31T15:44:16.681Z,35.13
2019-03-31T15:46:44.384Z,32.70
2019-03-31T15:49:12.110Z,38.80
2019-03-31T15:51:39.801Z,37.17
2019-03-31T15:54:07.588Z,38.93
2019-03-31T15:56:35.477Z,35.47
2019-03-31T15:59:03.211Z,30.37
2019-03-31T16:01:30.969Z,31.10
2019-03-31T16:03:58.733Z,31.93
2019-03-31T16:06:26.392Z,30.40
2019-03-31T16:08:54.046Z,26.00
2019-03-31T16:11:21.819Z,33.97
2019-03-31T16:13:49.528Z,34.03
2019-03-31T16:16:17.163Z,32.00
2019-03-31T16:18:44.926Z,36.60
2019-03-31T16:21:12.668Z,37.30
2019-03-31T16:23:40.306Z,32.87
2019-03-31T16:26:08.037Z,31.60
2019-03-31T16:28:35.738Z,31.77
2019-03-31T16:31:03.368Z,32.93
2019-03-31T16:33:31.114Z,34.83
2019-03-31T16:35:58.810Z,35.83
2019-03-31T16:38:26.529Z,37.13
2019-03-31T16:40:54.237Z,35.90
2019-03-31T16:43:21.919Z,36.63
2019-03-31T16:45:49.601Z,38.77
2019-03-31T16:48:17.304Z,42.07
2019-03-31T16:50:44.981Z,39.70
2019-03-31T16:53:12.672Z,39.67
2019-03-31T16:55:40.354Z,40.10
2019-03-31T16:58:09.582Z,34.17
2019-03-31T17:00:37.779Z,36.17
2019-03-31T17:03:05.530Z,33.43
2019-03-31T17:05:33.313Z,37.13
2019-03-31T17:08:01.022Z,38.60
2019-03-31T17:10:28.711Z,42.13
2019-03-31T17:12:56.434Z,34.33
2019-03-31T17:15:24.061Z,39.37
2019-03-31T17:17:51.833Z,39.00
2019-03-31T17:20:19.698Z,38.23
2019-03-31T17:22:47.470Z,34.97
2019-03-31T17:25:15.328Z,40.93
2019-03-31T17:27:42.983Z,32.50
2019-03-31T17:30:10.972Z,60.20
2019-03-31T17:32:38.671Z,35.20
2019-03-31T17:35:06.647Z,29.60
2019-03-31T17:37:34.395Z,34.93
2019-03-31T17:40:06.508Z,31.13
2019-03-31T17:42:31.427Z,33.93
2019-03-31T17:44:59.180Z,34.13
2019-03-31T17:47:26.888Z,28.40
2019-03-31T17:49:54.625Z,30.07
2019-03-31T17:52:22.331Z,30.30
2019-03-31T17:54:50.164Z,27.20
2019-03-31T17:57:17.929Z,33.90
2019-03-31T17:59:45.568Z,31.67
2019-03-31T18:02:13.350Z,26.20
2019-03-31T18:04:41.090Z,36.10
2019-03-31T18:07:08.723Z,46.50
2019-03-31T18:09:36.438Z,33.73
2019-03-31T18:12:04.242Z,42.50
2019-03-31T18:14:31.899Z,31.17
2019-03-31T18:16:59.582Z,23.73
2019-03-31T18:19:27.349Z,24.67
2019-03-31T18:21:55.041Z,23.80
2019-03-31T18:24:22.758Z,24.30
2019-03-31T18:26:50.466Z,23.60
2019-03-31T18:29:18.222Z,23.00
2019-03-31T18:31:45.954Z,21.23
2019-03-31T18:34:13.646Z,22.83
2019-03-31T18:36:41.404Z,21.17
2019-03-31T18:39:09.287Z,22.67
2019-03-31T18:41:37.002Z,22.73
2019-03-31T18:44:05.347Z,18.98
2019-03-31T18:46:33.080Z,23.80
2019-03-31T18:49:00.753Z,20.43
2019-03-31T18:51:28.466Z,19.93
2019-03-31T18:54:03.725Z,20.10
2019-03-31T18:56:41.488Z,18.83
2019-03-31T18:59:10.883Z,20.77
2019-03-31T19:01:40.111Z,16.93
2019-03-31T19:04:25.750Z,18.47
2019-03-31T19:07:11.585Z,17.30
2019-03-31T19:09:43.667Z,17.83
2019-03-31T19:12:25.221Z,20.23
2019-03-31T19:15:10.651Z,22.37
2019-03-31T19:17:55.958Z,19.13
2019-03-31T19:20:25.362Z,19.37
2019-03-31T19:23:09.322Z,22.43
2019-03-31T19:25:38.553Z,17.53
2019-03-31T19:28:24.445Z,21.13
2019-03-31T19:30:56.869Z,16.80
2019-03-31T19:33:26.134Z,16.43
2019-03-31T19:36:04.364Z,21.03
2019-03-31T19:38:39.604Z,25.30
2019-03-31T19:41:27.283Z,15.27
2019-03-31T19:43:56.526Z,20.20
2019-03-31T19:46:25.836Z,19.43
2019-03-31T19:49:11.562Z,20.17
2019-03-31T19:51:43.733Z,21.40
2019-03-31T19:54:13.030Z,16.73
2019-03-31T19:56:42.223Z,15.67
2019-03-31T19:59:26.821Z,16.93
2019-03-31T20:01:58.621Z,18.57
2019-03-31T20:04:27.830Z,17.00
2019-03-31T20:07:09.075Z,15.10
2019-03-31T20:09:44.385Z,16.07
2019-03-31T20:12:13.620Z,24.73
2019-03-31T20:14:57.951Z,15.07
2019-03-31T20:17:27.171Z,20.07
2019-03-31T20:20:14.570Z,19.33
2019-03-31T20:22:47.357Z,17.17
2019-03-31T20:25:14.777Z,18.33
2019-03-31T20:28:02.393Z,18.00
2019-03-31T20:30:37.684Z,17.23
2019-03-31T20:33:15.789Z,20.80
2019-03-31T20:36:00.182Z,21.43
2019-03-31T20:38:41.727Z,19.03
2019-03-31T20:41:10.956Z,21.30
2019-03-31T20:43:49.527Z,22.17
2019-03-31T20:46:17.288Z,27.80
2019-03-31T20:48:44.931Z,17.97
2019-03-31T20:51:12.646Z,23.70
2019-03-31T20:53:40.394Z,23.27
2019-03-31T20:56:08.025Z,19.03
2019-03-31T20:58:35.704Z,21.00
2019-03-31T21:01:03.434Z,19.77
2019-03-31T21:03:31.108Z,28.23
2019-03-31T21:05:58.809Z,28.47
2019-03-31T21:08:26.522Z,24.40
2019-03-31T21:10:54.654Z,24.80
2019-03-31T21:13:22.325Z,26.27
2019-03-31T21:15:50.018Z,23.70
2019-03-31T21:18:17.698Z,26.73
2019-03-31T21:20:45.474Z,32.43
2019-03-31T21:23:13.194Z,27.17
2019-03-31T21:25:40.910Z,29.00
2019-03-31T21:28:08.612Z,30.53
2019-03-31T21:30:37.038Z,25.70
2019-03-31T21:33:04.668Z,27.57
2019-03-31T21:35:32.344Z,31.03
2019-03-31T21:38:00.100Z,25.93
2019-03-31T21:40:28.142Z,32.37
2019-03-31T21:42:55.850Z,23.73
2019-03-31T21:45:23.525Z,21.87
2019-03-31T21:47:51.245Z,22.23
2019-03-31T21:50:18.982Z,21.97
2019-03-31T21:52:46.628Z,22.23
2019-03-31T21:55:14.343Z,22.50
2019-03-31T21:57:42.067Z,22.23
2019-03-31T22:00:10.517Z,26.13
2019-03-31T22:02:38.218Z,23.07
2019-03-31T22:05:06.822Z,19.97
2019-03-31T22:07:34.517Z,20.13
2019-03-31T22:10:02.163Z,25.93
2019-03-31T22:12:29.889Z,25.70
2019-03-31T22:14:57.565Z,23.07
2019-03-31T22:17:25.259Z,24.03
2019-03-31T22:19:53.006Z,28.70
2019-03-31T22:22:20.697Z,25.40
2019-03-31T22:24:48.386Z,29.23
2019-03-31T22:27:16.032Z,28.60
2019-03-31T22:29:43.685Z,26.70
2019-03-31T22:32:11.365Z,29.17
2019-03-31T22:34:39.053Z,26.67
2019-03-31T22:37:06.728Z,26.87
2019-03-31T22:39:34.377Z,31.07
2019-03-31T22:42:02.082Z,23.67
2019-03-31T22:44:29.784Z,29.83
2019-03-31T22:46:57.475Z,28.53
2019-03-31T22:49:25.200Z,25.07
2019-03-31T22:51:56.214Z,26.57
2019-03-31T22:54:22.378Z,23.53
2019-03-31T22:56:50.030Z,23.97
2019-03-31T22:59:17.699Z,23.33
2019-03-31T23:01:45.480Z,22.37
2019-03-31T23:04:13.218Z,21.10
2019-03-31T23:06:40.909Z,28.40
2019-03-31T23:09:08.800Z,23.87
2019-03-31T23:11:36.470Z,22.23
2019-03-31T23:14:04.144Z,18.60
2019-03-31T23:16:31.838Z,26.87
2019-03-31T23:18:59.511Z,21.47
2019-03-31T23:21:27.351Z,18.63
2019-03-31T23:23:55.048Z,20.63
2019-03-31T23:26:22.674Z,23.03
2019-03-31T23:28:50.404Z,19.10
2019-03-31T23:31:18.035Z,17.57
2019-03-31T23:33:45.755Z,18.63
2019-03-31T23:36:13.476Z,19.27
2019-03-31T23:38:41.183Z,14.63
2019-03-31T23:41:08.841Z,13.63
2019-03-31T23:43:36.545Z,21.10
2019-03-31T23:46:05.259Z,13.70
2019-03-31T23:48:32.985Z,15.90
2019-03-31T23:51:00.619Z,16.77
2019-03-31T23:53:28.301Z,16.20
2019-03-31T23:55:56.037Z,14.63
2019-03-31T23:58:23.668Z,15.47
